Terminal Aerodrome Forecast
Issued by NWS Wilmington, OH

Current Version | Previous Version | Text Only | Print | Product List | Glossary Off
Versions: 1 2 3 4 5 6 7 8 9 10 11 12 13 14 15 16 17 18 19 20 21 22 23 24 25 26 27 28

000
FTUS41 KILN 150538
TAFCMH
TAF
KCMH 150538Z 1506/1606 22011G19KT P6SM -DZ OVC006
     FM151000 23012KT P6SM OVC012
     FM151500 23013KT P6SM VCSH OVC015
     FM152100 23014KT 4SM -SHRA OVC012=

USA.gov is the U.S. government's official web portal to all federal, state and local government web resources and services.